Laura K. Moran — WDE3239 — position and weather

sailwx.info

Track history (hours):
 
Tides and Currents Weather Stations Pressure Air Temp Water Temp Dewpoint Dewpoint Depression Visibility Wind Speed Wind Dir Waves Ship Positions

Laura K. Moran

Owner: Moran Towing Corporation, New Canaan, CT. More information available from US FCC via Universal Licensing System and Coast Guard Vessel Documentation Center.

Last reported at 2018-Feb-25 01:49 UTC. Time now 2018-Apr-26 01:33 UTC.
Position N 31°52' W 080°47'.
Warning: this ship's position is 59 days out of date.

Length 28 m; draft 4.2 m.

Type: Port tender. MMSI: 367336190.

Date/timePositionNaut miles runAvg speedWind from/ knotsBaromVisibWave heightAir tempDewpointWater temp
2018-Feb-25 01:49N 31°52' W 080°47'2 8.0
2018-Feb-25 01:30N 31°54' W 080°46'4 8.0
2018-Feb-25 01:00N 31°58' W 080°45'4 8.3
2018-Feb-25 00:30N 32°01' W 080°48'4 9.2
2018-Feb-25 00:00N 32°02' W 080°53'5 9.8
2018-Feb-24 23:30N 32°05' W 080°59'4 8.0
2018-Feb-24 23:00N 32°05' W 081°03'1 1.1
2018-Feb-24 22:30N 32°05' W 081°04'0 0.0
2018-Feb-24 22:00N 32°05' W 081°04'0 0.0
2018-Feb-24 21:30N 32°05' W 081°04'0 0.0
2018-Feb-24 20:59N 32°05' W 081°04'0 0.0
2018-Feb-24 20:30N 32°05' W 081°04'0 0.0
2018-Feb-24 19:59N 32°05' W 081°04'0 0.0
2018-Feb-24 19:31N 32°05' W 081°04'0 0.0
2018-Feb-24 19:01N 32°05' W 081°04'0 0.0
2018-Feb-24 18:30N 32°05' W 081°04'0 0.0
2018-Feb-24 17:59N 32°05' W 081°04'0 0.0
2018-Feb-24 17:31N 32°05' W 081°04'1 1.6
2018-Feb-24 17:00N 32°05' W 081°05'4 7.8
2018-Feb-24 16:30N 32°07' W 081°08'1 1.1
2018-Feb-24 16:00N 32°08' W 081°09'0 0.1
2018-Feb-24 15:29N 32°08' W 081°09'0 0.0
2018-Feb-24 15:00N 32°08' W 081°09'0 0.0
2018-Feb-24 14:30N 32°08' W 081°09'0 0.0
2018-Feb-24 14:00N 32°08' W 081°09'0 0.1
2018-Feb-24 13:30N 32°08' W 081°09'0 0.0
2018-Feb-24 13:00N 32°08' W 081°09'0 0.0
2018-Feb-24 12:30N 32°08' W 081°09'0 0.1
2018-Feb-24 12:00N 32°08' W 081°09'0 0.1
2018-Feb-24 11:30N 32°08' W 081°09'0 0.0
2018-Feb-24 11:00N 32°08' W 081°09'0 0.0
2018-Feb-24 10:30N 32°08' W 081°09'0 0.4
2018-Feb-24 10:00N 32°08' W 081°08'0 0.4
2018-Feb-24 09:30N 32°08' W 081°09'0 0.8
2018-Feb-24 09:00N 32°08' W 081°08'1 2.7
2018-Feb-24 08:30N 32°07' W 081°08'3 4.4
2018-Feb-24 07:45N 32°05' W 081°05'1 4.3
2018-Feb-24 07:30N 32°05' W 081°03'1 1.7
2018-Feb-24 07:00N 32°05' W 081°02'1 2.5
2018-Feb-24 06:28N 32°05' W 081°04'0 0.0
2018-Feb-24 06:00N 32°05' W 081°04'2 4.2
2018-Feb-24 05:30N 32°06' W 081°06'4 7.4
2018-Feb-24 05:00N 32°09' W 081°09'0 0.0
2018-Feb-24 04:30N 32°09' W 081°09'0 0.0
2018-Feb-24 04:00N 32°09' W 081°09'1 2.4
2018-Feb-24 03:28N 32°07' W 081°08'1 2.1
2018-Feb-24 03:00N 32°08' W 081°09'1 2.7
2018-Feb-24 02:30N 32°07' W 081°08'0 0.0
2018-Feb-24 02:00N 32°07' W 081°08'0 0.0
2018-Feb-24 01:30N 32°07' W 081°08'0 0.0
2018-Feb-24 01:00N 32°07' W 081°08'1 2.5
2018-Feb-24 00:30N 32°08' W 081°09'0 0.1
2018-Feb-24 00:00N 32°08' W 081°09'3 6.4
2018-Feb-23 23:28N 32°05' W 081°06'2 4.3
2018-Feb-23 23:00N 32°05' W 081°04'0 0.0
2018-Feb-23 22:30N 32°05' W 081°04'0 0.0
2018-Feb-23 22:00N 32°05' W 081°04'0 0.0
2018-Feb-23 21:30N 32°05' W 081°04'2 4.6
2018-Feb-23 21:00N 32°06' W 081°06'1 2.6
2018-Feb-23 20:30N 32°07' W 081°07'0 0.0
2018-Feb-23 20:00N 32°07' W 081°07'0 0.0
2018-Feb-23 19:29N 32°07' W 081°07'1 2.7
2018-Feb-23 19:00N 32°06' W 081°06'2 4.4
2018-Feb-23 18:30N 32°05' W 081°04'0 0.1
2018-Feb-23 16:46N 32°05' W 081°04'0 0.0
2018-Feb-23 16:30N 32°05' W 081°04'0 0.0
2018-Feb-23 16:00N 32°05' W 081°04'0 0.0
2018-Feb-23 15:30N 32°05' W 081°04'0 0.0
2018-Feb-23 15:00N 32°05' W 081°04'0 0.0
2018-Feb-23 14:30N 32°05' W 081°04'0 0.0
2018-Feb-23 14:00N 32°05' W 081°04'0 0.0
2018-Feb-23 13:30N 32°05' W 081°04'0 0.0
2018-Feb-23 13:00N 32°05' W 081°04'0 0.0
2018-Feb-23 12:30N 32°05' W 081°04'0 0.0
2018-Feb-23 12:00N 32°05' W 081°04'0 0.0
2018-Feb-23 11:28N 32°05' W 081°04'0 0.0
2018-Feb-23 11:00N 32°05' W 081°04'0 0.0
2018-Feb-23 10:30N 32°05' W 081°04'0 0.0
2018-Feb-23 10:00N 32°05' W 081°04'0 0.0
2018-Feb-23 09:30N 32°05' W 081°04'0 0.0
2018-Feb-23 09:00N 32°05' W 081°04'0 0.0
2018-Feb-23 08:30N 32°05' W 081°04'0 0.0
2018-Feb-23 08:00N 32°05' W 081°04'4 8.4
2018-Feb-23 07:29N 32°08' W 081°08'0 0.9
2018-Feb-23 07:00N 32°08' W 081°08'2 4.4
2018-Feb-23 06:30N 32°06' W 081°07'1 2.6
2018-Feb-23 06:00N 32°07' W 081°08'0 0.0
2018-Feb-23 05:30N 32°07' W 081°08'0 0.0
2018-Feb-23 04:58N 32°07' W 081°08'0 0.0
2018-Feb-23 04:30N 32°07' W 081°08'0 0.0
2018-Feb-23 04:00N 32°07' W 081°08'1 2.0
2018-Feb-23 03:30N 32°08' W 081°08'0 0.1
2018-Feb-23 03:00N 32°08' W 081°08'0 0.3
2018-Feb-23 02:30N 32°08' W 081°09'0 0.0
2018-Feb-23 02:00N 32°08' W 081°09'0 0.1
2018-Feb-23 01:30N 32°08' W 081°09'0 0.1
2018-Feb-23 01:00N 32°08' W 081°09'1 2.0
2018-Feb-23 00:30N 32°07' W 081°08'0 0.6
2018-Feb-23 00:00N 32°07' W 081°08'0 0.5
2018-Feb-22 23:30N 32°08' W 081°08'0 0.5
2018-Feb-22 23:00N 32°07' W 081°08'2 3.5
2018-Feb-22 22:30N 32°06' W 081°07'1 1.0
2018-Feb-22 22:00N 32°06' W 081°06'2 4.6
2018-Feb-22 21:30N 32°05' W 081°04'0 0.0
2018-Feb-22 21:00N 32°05' W 081°04'0 0.0
2018-Feb-22 20:30N 32°05' W 081°04'0 0.0
2018-Feb-22 20:00N 32°05' W 081°04'0 0.0
2018-Feb-22 19:30N 32°05' W 081°04'0 0.9
2018-Feb-22 19:00N 32°05' W 081°03'2 4.1
2018-Feb-22 18:30N 32°05' W 081°06'2 4.9
2018-Feb-22 18:00N 32°07' W 081°08'1 2.8
2018-Feb-22 17:30N 32°08' W 081°08'0 0.6
2018-Feb-22 17:00N 32°08' W 081°09'4 8.1
2018-Feb-22 16:30N 32°05' W 081°06'2 3.4
2018-Feb-22 16:00N 32°05' W 081°04'0 0.0
2018-Feb-22 15:30N 32°05' W 081°04'0 0.0
2018-Feb-22 15:00N 32°05' W 081°04'0 0.0
2018-Feb-22 14:30N 32°05' W 081°04'0 0.0
2018-Feb-22 14:00N 32°05' W 081°04'0 0.0
2018-Feb-22 13:30N 32°05' W 081°04'0 0.0
2018-Feb-22 13:00N 32°05' W 081°04'1 2.3
2018-Feb-22 12:30N 32°05' W 081°05'1 2.5
2018-Feb-22 12:00N 32°06' W 081°06'2 3.9
2018-Feb-22 11:30N 32°07' W 081°08'0 0.2
2018-Feb-22 11:00N 32°07' W 081°08'0 0.3
2018-Feb-22 10:30N 32°07' W 081°08'0 0.0
2018-Feb-22 10:00N 32°07' W 081°08'0 0.0
2018-Feb-22 09:30N 32°07' W 081°08'0 0.0
2018-Feb-22 09:00N 32°07' W 081°08'0 0.0
2018-Feb-22 08:30N 32°07' W 081°08'0 0.0
2018-Feb-22 08:00N 32°07' W 081°08'0 0.2
2018-Feb-22 07:30N 32°07' W 081°08'0 0.0
2018-Feb-22 06:59N 32°07' W 081°08'0 0.4
2018-Feb-22 06:30N 32°07' W 081°08'4 7.9
2018-Feb-22 06:00N 32°05' W 081°04'0 0.4
2018-Feb-22 05:30N 32°05' W 081°04'0 0.0
2018-Feb-22 04:59N 32°05' W 081°04'0 0.5
2018-Feb-22 04:30N 32°05' W 081°04'0 0.0
2018-Feb-22 04:00N 32°05' W 081°04'0 0.0
2018-Feb-22 03:30N 32°05' W 081°04'0 0.0
2018-Feb-22 03:00N 32°05' W 081°04'0 0.0
2018-Feb-22 02:30N 32°05' W 081°04'0 0.0
2018-Feb-22 02:00N 32°05' W 081°04'0 0.8
2018-Feb-22 01:30N 32°05' W 081°04'2 3.7
2018-Feb-22 01:00N 32°06' W 081°06'2 3.7
2018-Feb-22 00:30N 32°05' W 081°04'0 0.8
2018-Feb-22 00:00N 32°05' W 081°04'0 0.0
2018-Feb-21 23:30N 32°05' W 081°04'0 0.0
2018-Feb-21 22:59N 32°05' W 081°04'0 0.0
2018-Feb-21 22:30N 32°05' W 081°04'0 0.0
2018-Feb-21 22:00N 32°05' W 081°04'0 0.0
2018-Feb-21 21:30N 32°05' W 081°04'0 0.0
2018-Feb-21 21:00N 32°05' W 081°04'0 0.0
2018-Feb-21 20:30N 32°05' W 081°04'0 0.0
2018-Feb-21 20:00N 32°05' W 081°04'0 0.0
2018-Feb-21 19:30N 32°05' W 081°04'0 0.0
2018-Feb-21 19:01N 32°05' W 081°04'0 0.2
2018-Feb-21 18:29N 32°05' W 081°04'2 3.6
2018-Feb-21 18:01N 32°05' W 081°06'2 3.5
2018-Feb-21 17:30N 32°06' W 081°07'2 3.3
2018-Feb-21 16:58N 32°08' W 081°08'1 1.2
2018-Feb-21 16:31N 32°08' W 081°08'0 0.2
2018-Feb-21 16:01N 32°08' W 081°08'0 0.6
2018-Feb-21 15:30N 32°08' W 081°08'0 1.0
2018-Feb-21 15:01N 32°07' W 081°08'2 5.0
2018-Feb-21 14:31N 32°06' W 081°06'3 4.9
2018-Feb-21 14:00N 32°05' W 081°03'0 0.6
2018-Feb-21 13:30N 32°05' W 081°04'0 0.3
2018-Feb-21 13:00N 32°05' W 081°04'0 0.0
2018-Feb-21 12:31N 32°05' W 081°04'0 0.0
2018-Feb-21 12:01N 32°05' W 081°04'0 0.0
2018-Feb-21 11:30N 32°05' W 081°04'0 0.0
2018-Feb-21 11:00N 32°05' W 081°04'4 7.3
2018-Feb-21 10:31N 32°07' W 081°07'1 0.8
2018-Feb-21 09:48N 32°07' W 081°08'0 1.6
2018-Feb-21 09:30N 32°08' W 081°08'1 1.0
2018-Feb-21 09:00N 32°07' W 081°08'2 4.3
2018-Feb-21 08:29N 32°05' W 081°06'0 0.3
2018-Feb-21 08:00N 32°05' W 081°06'0 0.0
2018-Feb-21 07:31N 32°05' W 081°06'0 0.0
2018-Feb-21 07:01N 32°05' W 081°06'1 1.5
2018-Feb-21 06:31N 32°06' W 081°07'2 3.2
2018-Feb-21 06:01N 32°07' W 081°08'0 0.2
2018-Feb-21 05:30N 32°07' W 081°08'0 0.2
2018-Feb-21 05:01N 32°07' W 081°08'1 1.2
2018-Feb-21 04:30N 32°07' W 081°08'4 7.2
2018-Feb-21 04:01N 32°05' W 081°04'1 1.0
2018-Feb-21 03:28N 32°05' W 081°04'0 0.0
2018-Feb-21 02:59N 32°05' W 081°04'0 0.0
2018-Feb-21 02:30N 32°05' W 081°04'0 0.0
2018-Feb-21 01:58N 32°05' W 081°04'0 0.0
2018-Feb-21 01:30N 32°05' W 081°04'0 0.0
2018-Feb-21 01:00N 32°05' W 081°04'0 0.0
2018-Feb-21 00:30N 32°05' W 081°04'3 5.0
2018-Feb-21 00:00N 32°06' W 081°07'2 4.5
2018-Feb-20 23:30N 32°08' W 081°08'0 0.8
2018-Feb-20 23:00N 32°07' W 081°08'2 4.6
2018-Feb-20 22:31N 32°06' W 081°06'2 4.9
2018-Feb-20 22:00N 32°05' W 081°03'3 7.0
2018-Feb-20 21:30N 32°05' W 080°59'0 0.8
2018-Feb-20 21:00N 32°05' W 080°59'0 0.9
2018-Feb-20 20:30N 32°05' W 080°59'4 6.8
2018-Feb-20 19:57N 32°05' W 081°04'3 6.2
2018-Feb-20 19:30N 32°06' W 081°07'2 4.0
2018-Feb-20 19:00N 32°08' W 081°08'0 0.3
2018-Feb-20 18:29N 32°08' W 081°08'0 0.0
2018-Feb-20 18:00N 32°08' W 081°08'0 0.0
2018-Feb-20 17:30N 32°08' W 081°08'0 0.0
2018-Feb-20 17:00N 32°08' W 081°08'1 1.3
2018-Feb-20 16:30N 32°07' W 081°08'0 0.2
2018-Feb-20 16:00N 32°07' W 081°08'0 0.8
2018-Feb-20 15:29N 32°08' W 081°08'1 1.7
2018-Feb-20 15:00N 32°07' W 081°08'2 4.3
2018-Feb-20 14:30N 32°05' W 081°06'0 0.7
2018-Feb-20 14:01N 32°05' W 081°06'0 0.0
2018-Feb-20 13:30N 32°05' W 081°06'0 0.0
2018-Feb-20 13:00N 32°05' W 081°06'0 0.0
2018-Feb-20 12:30N 32°05' W 081°06'0 0.0
2018-Feb-20 11:55N 32°05' W 081°06'0 0.0
2018-Feb-20 11:30N 32°05' W 081°06'0 0.0
2018-Feb-20 11:01N 32°05' W 081°06'0 0.0
2018-Feb-20 10:30N 32°05' W 081°06'0 0.0
2018-Feb-20 10:00N 32°05' W 081°06'0 0.0
2018-Feb-20 09:30N 32°05' W 081°06'0 0.0
2018-Feb-20 08:59N 32°05' W 081°06'0 0.0
2018-Feb-20 08:30N 32°05' W 081°06'0 0.0
2018-Feb-20 08:00N 32°05' W 081°06'0 0.0
2018-Feb-20 07:30N 32°05' W 081°06'0 0.0
2018-Feb-20 07:00N 32°05' W 081°06'0 0.0
2018-Feb-20 06:31N 32°05' W 081°06'0 0.0
2018-Feb-20 05:57N 32°05' W 081°06'0 0.0
2018-Feb-20 05:30N 32°05' W 081°06'0 0.0
2018-Feb-20 05:01N 32°05' W 081°06'0 0.0
2018-Feb-20 04:29N 32°05' W 081°06'0 0.0
2018-Feb-20 04:00N 32°05' W 081°06'0 0.0
2018-Feb-20 03:30N 32°05' W 081°06'0 0.2
2018-Feb-20 02:59N 32°06' W 081°06'2 4.7
2018-Feb-20 02:30N 32°07' W 081°08'0 0.0
2018-Feb-20 02:00N 32°07' W 081°08'0 0.0
2018-Feb-20 01:31N 32°07' W 081°08'0 0.0
2018-Feb-20 01:00N 32°07' W 081°08'0 0.1
2018-Feb-20 00:30N 32°07' W 081°08'4 8.5
2018-Feb-20 00:00N 32°05' W 081°04'0 0.1
2018-Feb-19 23:30N 32°05' W 081°04'0 0.0
2018-Feb-19 23:00N 32°05' W 081°04'0 0.0
2018-Feb-19 22:30N 32°05' W 081°04'0 0.0
2018-Feb-19 22:00N 32°05' W 081°04'0 0.0
2018-Feb-19 21:30N 32°05' W 081°04'0 0.0
2018-Feb-19 21:00N 32°05' W 081°04'0 0.0
2018-Feb-19 20:30N 32°05' W 081°04'0 0.0
2018-Feb-19 20:00N 32°05' W 081°04'0 0.0
2018-Feb-19 19:29N 32°05' W 081°04'0 0.0
2018-Feb-19 19:00N 32°05' W 081°04'0 0.0
2018-Feb-19 18:30N 32°05' W 081°04'1 1.9
2018-Feb-19 17:59N 32°05' W 081°05'4 9.0
2018-Feb-19 17:30N 32°08' W 081°09'1 1.7
2018-Feb-19 16:59N 32°07' W 081°08'2 3.2
2018-Feb-19 16:30N 32°06' W 081°07'1 2.2
2018-Feb-19 16:00N 32°05' W 081°06'0 0.0
2018-Feb-19 15:30N 32°05' W 081°06'0 0.0
2018-Feb-19 15:00N 32°05' W 081°06'0 0.0
2018-Feb-19 14:30N 32°05' W 081°06'0 0.0
2018-Feb-19 14:00N 32°05' W 081°06'0 0.0
2018-Feb-19 13:30N 32°05' W 081°06'0 0.0
2018-Feb-19 13:00N 32°05' W 081°06'0 0.0
2018-Feb-19 12:30N 32°05' W 081°06'0 0.0
2018-Feb-19 12:00N 32°05' W 081°06'0 0.2
2018-Feb-19 11:29N 32°05' W 081°06'1 1.9
2018-Feb-19 11:00N 32°05' W 081°05'1 2.7
2018-Feb-19 10:30N 32°05' W 081°06'2 4.4
2018-Feb-19 10:00N 32°07' W 081°08'1 1.1
2018-Feb-19 09:28N 32°08' W 081°08'0 0.0
2018-Feb-19 09:00N 32°08' W 081°08'1 1.3
2018-Feb-19 08:30N 32°07' W 081°08'0 0.0
2018-Feb-19 08:00N 32°07' W 081°08'0 0.0
2018-Feb-19 07:30N 32°07' W 081°08'2 3.5
2018-Feb-19 07:00N 32°06' W 081°06'2 4.1
2018-Feb-19 06:30N 32°07' W 081°08'1 1.1
2018-Feb-19 06:00N 32°08' W 081°08'1 2.5
2018-Feb-19 05:30N 32°07' W 081°08'3 6.3
2018-Feb-19 04:59N 32°05' W 081°04'0 0.7
2018-Feb-19 04:30N 32°05' W 081°05'4 7.8
2018-Feb-19 04:00N 32°08' W 081°08'0 0.8
2018-Feb-19 03:30N 32°08' W 081°08'1 2.6
2018-Feb-19 03:00N 32°07' W 081°08'3 6.6
2018-Feb-19 02:30N 32°05' W 081°04'1 1.1
2018-Feb-19 02:00N 32°05' W 081°04'0 0.0
2018-Feb-19 01:30N 32°05' W 081°04'0 0.0
2018-Feb-19 01:00N 32°05' W 081°04'0 0.0
2018-Feb-19 00:30N 32°05' W 081°04'0 0.0
2018-Feb-19 00:00N 32°05' W 081°04'0 0.0
2018-Feb-18 23:30N 32°05' W 081°04'0 0.0
2018-Feb-18 23:00N 32°05' W 081°04'0 0.0
2018-Feb-18 22:30N 32°05' W 081°04'0 0.0
2018-Feb-18 22:00N 32°05' W 081°04'0 0.0
2018-Feb-18 21:30N 32°05' W 081°04'0 0.0
2018-Feb-18 21:00N 32°05' W 081°04'0 0.0
2018-Feb-18 20:30N 32°05' W 081°04'0 0.0
2018-Feb-18 20:00N 32°05' W 081°04'0 0.0
2018-Feb-18 19:30N 32°05' W 081°04'0 0.0
2018-Feb-18 18:58N 32°05' W 081°04'0 0.0
2018-Feb-18 18:30N 32°05' W 081°04'0 0.0
2018-Feb-18 18:00N 32°05' W 081°04'0 0.0
2018-Feb-18 17:29N 32°05' W 081°04'0 0.0
2018-Feb-18 17:00N 32°05' W 081°04'0 0.0
2018-Feb-18 16:28N 32°05' W 081°04'0 0.4
2018-Feb-18 16:00N 32°05' W 081°04'4 7.9
2018-Feb-18 15:30N 32°07' W 081°08'0 0.6
2018-Feb-18 15:00N 32°07' W 081°08'0 0.5
2018-Feb-18 14:30N 32°08' W 081°08'3 5.2
2018-Feb-18 14:00N 32°06' W 081°06'1 1.3
2018-Feb-18 13:30N 32°05' W 081°06'4 7.2
2018-Feb-18 13:00N 32°08' W 081°08'0 0.7
2018-Feb-18 12:30N 32°08' W 081°09'1 2.2
2018-Feb-18 12:00N 32°07' W 081°08'0 0.0
2018-Feb-18 11:30N 32°07' W 081°08'0 0.0
2018-Feb-18 11:00N 32°07' W 081°08'0 0.0
2018-Feb-18 10:30N 32°07' W 081°08'1 0.7
2018-Feb-18 09:37N 32°08' W 081°08'0 0.7
2018-Feb-18 09:30N 32°08' W 081°08'3 6.0
2018-Feb-18 09:00N 32°05' W 081°06'2 3.3
2018-Feb-18 08:30N 32°05' W 081°04'1 1.0
2018-Feb-18 08:00N 32°05' W 081°04'0 0.0
2018-Feb-18 07:30N 32°05' W 081°04'0 0.0
2018-Feb-18 07:00N 32°05' W 081°04'0 0.0
2018-Feb-18 06:30N 32°05' W 081°04'0 0.0
2018-Feb-18 06:00N 32°05' W 081°04'0 0.0
2018-Feb-18 05:30N 32°05' W 081°04'0 0.0
2018-Feb-18 05:00N 32°05' W 081°04'0 0.0
2018-Feb-18 04:30N 32°05' W 081°04'0 0.0
2018-Feb-18 04:00N 32°05' W 081°04'0 0.0
2018-Feb-18 03:30N 32°05' W 081°04'0 0.0
2018-Feb-18 03:00N 32°05' W 081°04'0 0.0
2018-Feb-18 02:30N 32°05' W 081°04'0 0.0
2018-Feb-18 02:00N 32°05' W 081°04'0 0.0
2018-Feb-18 01:30N 32°05' W 081°04'0 0.0
2018-Feb-18 00:59N 32°05' W 081°04'0 0.0
2018-Feb-18 00:30N 32°05' W 081°04'0 0.0
2018-Feb-18 00:00N 32°05' W 081°04'0 0.0
2018-Feb-17 23:30N 32°05' W 081°04'0 0.0
2018-Feb-17 23:00N 32°05' W 081°04'0 0.0
2018-Feb-17 22:30N 32°05' W 081°04'0 0.0
2018-Feb-17 22:00N 32°05' W 081°04'0 0.0
2018-Feb-17 21:30N 32°05' W 081°04'0 0.0
2018-Feb-17 21:00N 32°05' W 081°04'0 0.0
2018-Feb-17 20:29N 32°05' W 081°04'0 0.0
2018-Feb-17 20:00N 32°05' W 081°04'0 0.0
2018-Feb-17 19:30N 32°05' W 081°04'0 0.0
2018-Feb-17 19:00N 32°05' W 081°04'0 0.0
2018-Feb-17 18:30N 32°05' W 081°04'0 0.0
2018-Feb-17 18:00N 32°05' W 081°04'0 0.0
2018-Feb-17 17:30N 32°05' W 081°04'3 5.4
2018-Feb-17 17:00N 32°06' W 081°07'2 4.5
2018-Feb-17 16:30N 32°08' W 081°08'0 0.3
2018-Feb-17 16:00N 32°08' W 081°08'1 1.2
2018-Feb-17 15:30N 32°08' W 081°08'2 3.2
2018-Feb-17 15:00N 32°07' W 081°08'2 4.3
2018-Feb-17 14:29N 32°05' W 081°06'0 0.0
2018-Feb-17 14:00N 32°05' W 081°06'0 0.0
2018-Feb-17 13:30N 32°05' W 081°06'0 0.0
2018-Feb-17 12:59N 32°05' W 081°06'0 0.0
2018-Feb-17 12:30N 32°05' W 081°06'0 0.0
2018-Feb-17 12:00N 32°05' W 081°06'0 0.0
2018-Feb-17 11:30N 32°05' W 081°06'0 0.0
2018-Feb-17 10:57N 32°05' W 081°06'0 0.0
2018-Feb-17 10:30N 32°05' W 081°06'0 0.0
2018-Feb-17 10:00N 32°05' W 081°06'0 0.0
2018-Feb-17 09:30N 32°05' W 081°06'0 0.0
2018-Feb-17 09:00N 32°05' W 081°06'0 0.0
2018-Feb-17 08:30N 32°05' W 081°06'0 0.9
2018-Feb-17 08:00N 32°05' W 081°06'1 1.7
2018-Feb-17 07:30N 32°06' W 081°07'1 1.9
2018-Feb-17 07:00N 32°05' W 081°06'0 0.6
2018-Feb-17 06:30N 32°05' W 081°06'0 0.0
2018-Feb-17 06:00N 32°05' W 081°06'0 0.0
2018-Feb-17 05:30N 32°05' W 081°06'0 0.0
2018-Feb-17 05:00N 32°05' W 081°06'0 0.0
2018-Feb-17 04:30N 32°05' W 081°06'0 0.0
2018-Feb-17 04:00N 32°05' W 081°06'3 5.5
2018-Feb-17 03:30N 32°07' W 081°08'0 0.3
2018-Feb-17 02:59N 32°07' W 081°08'1 1.4
2018-Feb-17 02:30N 32°08' W 081°08'3 6.2
2018-Feb-17 02:00N 32°05' W 081°06'2 4.1
2018-Feb-17 01:30N 32°05' W 081°04'0 0.0
2018-Feb-17 01:00N 32°05' W 081°04'0 0.0
2018-Feb-17 00:30N 32°05' W 081°04'0 0.0
2018-Feb-17 00:00N 32°05' W 081°04'0 0.0
2018-Feb-16 23:30N 32°05' W 081°04'0 0.0
2018-Feb-16 23:00N 32°05' W 081°04'0 0.0
2018-Feb-16 22:30N 32°05' W 081°04'0 0.0
2018-Feb-16 22:00N 32°05' W 081°04'0 0.0
2018-Feb-16 21:30N 32°05' W 081°04'0 0.0
2018-Feb-16 21:00N 32°05' W 081°04'0 0.0
2018-Feb-16 20:30N 32°05' W 081°04'0 0.0
2018-Feb-16 20:00N 32°05' W 081°04'0 0.0
2018-Feb-16 19:30N 32°05' W 081°04'0 0.0
2018-Feb-16 19:00N 32°05' W 081°04'0 0.0
2018-Feb-16 18:30N 32°05' W 081°04'0 0.0
2018-Feb-16 18:00N 32°05' W 081°04'0 0.0
2018-Feb-16 17:30N 32°05' W 081°04'0 0.0
2018-Feb-16 17:00N 32°05' W 081°04'4 8.5
2018-Feb-16 16:30N 32°07' W 081°08'1 1.4
2018-Feb-16 16:00N 32°08' W 081°08'2 3.5
2018-Feb-16 15:30N 32°06' W 081°07'0 0.9
2018-Feb-16 15:00N 32°07' W 081°08'3 7.0
2018-Feb-16 14:30N 32°05' W 081°04'0 0.8
2018-Feb-16 14:00N 32°05' W 081°04'0 0.0
2018-Feb-16 13:30N 32°05' W 081°04'0 0.6
2018-Feb-16 12:59N 32°05' W 081°04'3 5.5
2018-Feb-16 12:30N 32°06' W 081°07'2 4.3
2018-Feb-16 12:00N 32°08' W 081°08'0 0.2
2018-Feb-16 11:30N 32°08' W 081°08'0 0.3
2018-Feb-16 10:59N 32°08' W 081°09'1 1.7
2018-Feb-16 10:30N 32°07' W 081°08'0 0.5
2018-Feb-16 10:00N 32°07' W 081°08'0 0.0
2018-Feb-16 09:30N 32°07' W 081°08'0 0.0
2018-Feb-16 09:00N 32°07' W 081°08'0 0.0
2018-Feb-16 08:30N 32°07' W 081°08'0 0.0
2018-Feb-16 08:00N 32°07' W 081°08'0 0.0
2018-Feb-16 07:30N 32°07' W 081°08'0 0.0
2018-Feb-16 07:00N 32°07' W 081°08'0 0.0
2018-Feb-16 06:30N 32°07' W 081°08'0 0.0
2018-Feb-16 06:00N 32°07' W 081°08'0 0.0
2018-Feb-16 05:30N 32°07' W 081°08'0 0.0
2018-Feb-16 05:00N 32°07' W 081°08'0 0.0
2018-Feb-16 04:30N 32°07' W 081°08'1 2.7
2018-Feb-16 04:00N 32°06' W 081°07'3 5.8
2018-Feb-16 03:30N 32°05' W 081°04'0 0.0
2018-Feb-16 03:00N 32°05' W 081°04'0 0.0
2018-Feb-16 02:30N 32°05' W 081°04'0 0.0
2018-Feb-16 02:00N 32°05' W 081°04'0 0.0
2018-Feb-16 01:30N 32°05' W 081°04'0 0.0
2018-Feb-16 01:00N 32°05' W 081°04'0 0.0
2018-Feb-16 00:30N 32°05' W 081°04'0 0.0
2018-Feb-16 00:00N 32°05' W 081°04'0 0.0
2018-Feb-15 23:30N 32°05' W 081°04'0 0.0
2018-Feb-15 23:00N 32°05' W 081°04'0 0.0
2018-Feb-15 22:30N 32°05' W 081°04'0 0.0
2018-Feb-15 21:59N 32°05' W 081°04'0 0.0
2018-Feb-15 21:30N 32°05' W 081°04'0 0.0
2018-Feb-15 21:00N 32°05' W 081°04'0 0.0
2018-Feb-15 20:29N 32°05' W 081°04'0 0.0
2018-Feb-15 20:00N 32°05' W 081°04'0 0.0
2018-Feb-15 19:30N 32°05' W 081°04'0 0.0
2018-Feb-15 19:00N 32°05' W 081°04'0 0.0
2018-Feb-15 18:30N 32°05' W 081°04'0 0.0
2018-Feb-15 18:00N 32°05' W 081°04'0 0.0
2018-Feb-15 17:29N 32°05' W 081°04'0 0.0
2018-Feb-15 17:00N 32°05' W 081°04'4 7.2
2018-Feb-15 16:30N 32°07' W 081°07'1 1.8
2018-Feb-15 15:59N 32°08' W 081°08'0 0.8
2018-Feb-15 15:30N 32°08' W 081°08'3 5.6
2018-Feb-15 15:01N 32°06' W 081°06'2 4.0
2018-Feb-15 14:27N 32°07' W 081°08'0 0.0
2018-Feb-15 14:00N 32°07' W 081°08'0 0.0
2018-Feb-15 13:30N 32°07' W 081°08'0 0.0
2018-Feb-15 12:59N 32°07' W 081°08'0 0.0
2018-Feb-15 12:30N 32°07' W 081°08'0 0.0
2018-Feb-15 12:00N 32°07' W 081°08'0 0.1
2018-Feb-15 11:30N 32°07' W 081°08'0 0.4
2018-Feb-15 11:00N 32°07' W 081°08'3 6.3
2018-Feb-15 10:31N 32°05' W 081°05'2 4.1
2018-Feb-15 10:00N 32°06' W 081°07'1 2.3
2018-Feb-15 09:31N 32°05' W 081°06'0 0.0
2018-Feb-15 09:00N 32°05' W 081°06'0 0.0
2018-Feb-15 08:31N 32°05' W 081°06'0 0.0
2018-Feb-15 08:00N 32°05' W 081°06'0 0.0
2018-Feb-15 07:30N 32°05' W 081°06'0 0.0
2018-Feb-15 07:00N 32°05' W 081°06'0 0.0
2018-Feb-15 06:30N 32°05' W 081°06'0 0.0
2018-Feb-15 06:00N 32°05' W 081°06'2 3.1
2018-Feb-15 05:30N 32°07' W 081°07'1 2.8
2018-Feb-15 05:00N 32°06' W 081°06'2 3.3
2018-Feb-15 04:30N 32°05' W 081°05'1 1.5
2018-Feb-15 04:01N 32°05' W 081°04'0 0.0
2018-Feb-15 03:30N 32°05' W 081°04'0 0.0
2018-Feb-15 03:01N 32°05' W 081°04'0 0.0
2018-Feb-15 02:31N 32°05' W 081°04'0 0.0
2018-Feb-15 02:00N 32°05' W 081°04'  
Track history (hours):
 
Tides and Currents Weather Stations Pressure Air Temp Water Temp Dewpoint Dewpoint Depression Visibility Wind Speed Wind Dir Waves Ship Positions

Laura K. Moran

Owner: Moran Towing Corporation, New Canaan, CT. More information available from US FCC via Universal Licensing System and Coast Guard Vessel Documentation Center.

Last reported at 2018-Feb-25 01:49 UTC. Time now 2018-Apr-26 01:33 UTC.
Position N 31°52' W 080°47'.
Warning: this ship's position is 59 days out of date.

Length 28 m; draft 4.2 m.

Type: Port tender. MMSI: 367336190.

Date/timePositionNaut miles runAvg speedWind from/ knotsBaromVisibWave heightAir tempDewpointWater temp
2018-Feb-25 01:49N 31°52' W 080°47'2 8.0
2018-Feb-25 01:30N 31°54' W 080°46'4 8.0
2018-Feb-25 01:00N 31°58' W 080°45'4 8.3
2018-Feb-25 00:30N 32°01' W 080°48'4 9.2
2018-Feb-25 00:00N 32°02' W 080°53'5 9.8
2018-Feb-24 23:30N 32°05' W 080°59'4 8.0
2018-Feb-24 23:00N 32°05' W 081°03'1 1.1
2018-Feb-24 22:30N 32°05' W 081°04'0 0.0
2018-Feb-24 22:00N 32°05' W 081°04'0 0.0
2018-Feb-24 21:30N 32°05' W 081°04'0 0.0
2018-Feb-24 20:59N 32°05' W 081°04'0 0.0
2018-Feb-24 20:30N 32°05' W 081°04'0 0.0
2018-Feb-24 19:59N 32°05' W 081°04'0 0.0
2018-Feb-24 19:31N 32°05' W 081°04'0 0.0
2018-Feb-24 19:01N 32°05' W 081°04'0 0.0
2018-Feb-24 18:30N 32°05' W 081°04'0 0.0
2018-Feb-24 17:59N 32°05' W 081°04'0 0.0
2018-Feb-24 17:31N 32°05' W 081°04'1 1.6
2018-Feb-24 17:00N 32°05' W 081°05'4 7.8
2018-Feb-24 16:30N 32°07' W 081°08'1 1.1
2018-Feb-24 16:00N 32°08' W 081°09'0 0.1
2018-Feb-24 15:29N 32°08' W 081°09'0 0.0
2018-Feb-24 15:00N 32°08' W 081°09'0 0.0
2018-Feb-24 14:30N 32°08' W 081°09'0 0.0
2018-Feb-24 14:00N 32°08' W 081°09'0 0.1
2018-Feb-24 13:30N 32°08' W 081°09'0 0.0
2018-Feb-24 13:00N 32°08' W 081°09'0 0.0
2018-Feb-24 12:30N 32°08' W 081°09'0 0.1
2018-Feb-24 12:00N 32°08' W 081°09'0 0.1
2018-Feb-24 11:30N 32°08' W 081°09'0 0.0
2018-Feb-24 11:00N 32°08' W 081°09'0 0.0
2018-Feb-24 10:30N 32°08' W 081°09'0 0.4
2018-Feb-24 10:00N 32°08' W 081°08'0 0.4
2018-Feb-24 09:30N 32°08' W 081°09'0 0.8
2018-Feb-24 09:00N 32°08' W 081°08'1 2.7
2018-Feb-24 08:30N 32°07' W 081°08'3 4.4
2018-Feb-24 07:45N 32°05' W 081°05'1 4.3
2018-Feb-24 07:30N 32°05' W 081°03'1 1.7
2018-Feb-24 07:00N 32°05' W 081°02'1 2.5
2018-Feb-24 06:28N 32°05' W 081°04'0 0.0
2018-Feb-24 06:00N 32°05' W 081°04'2 4.2
2018-Feb-24 05:30N 32°06' W 081°06'4 7.4
2018-Feb-24 05:00N 32°09' W 081°09'0 0.0
2018-Feb-24 04:30N 32°09' W 081°09'0 0.0
2018-Feb-24 04:00N 32°09' W 081°09'1 2.4
2018-Feb-24 03:28N 32°07' W 081°08'1 2.1
2018-Feb-24 03:00N 32°08' W 081°09'1 2.7
2018-Feb-24 02:30N 32°07' W 081°08'0 0.0
2018-Feb-24 02:00N 32°07' W 081°08'0 0.0
2018-Feb-24 01:30N 32°07' W 081°08'0 0.0
2018-Feb-24 01:00N 32°07' W 081°08'1 2.5
2018-Feb-24 00:30N 32°08' W 081°09'0 0.1
2018-Feb-24 00:00N 32°08' W 081°09'3 6.4
2018-Feb-23 23:28N 32°05' W 081°06'2 4.3
2018-Feb-23 23:00N 32°05' W 081°04'0 0.0
2018-Feb-23 22:30N 32°05' W 081°04'0 0.0
2018-Feb-23 22:00N 32°05' W 081°04'0 0.0
2018-Feb-23 21:30N 32°05' W 081°04'2 4.6
2018-Feb-23 21:00N 32°06' W 081°06'1 2.6
2018-Feb-23 20:30N 32°07' W 081°07'0 0.0
2018-Feb-23 20:00N 32°07' W 081°07'0 0.0
2018-Feb-23 19:29N 32°07' W 081°07'1 2.7
2018-Feb-23 19:00N 32°06' W 081°06'2 4.4
2018-Feb-23 18:30N 32°05' W 081°04'0 0.1
2018-Feb-23 16:46N 32°05' W 081°04'0 0.0
2018-Feb-23 16:30N 32°05' W 081°04'0 0.0
2018-Feb-23 16:00N 32°05' W 081°04'0 0.0
2018-Feb-23 15:30N 32°05' W 081°04'0 0.0
2018-Feb-23 15:00N 32°05' W 081°04'0 0.0
2018-Feb-23 14:30N 32°05' W 081°04'0 0.0
2018-Feb-23 14:00N 32°05' W 081°04'0 0.0
2018-Feb-23 13:30N 32°05' W 081°04'0 0.0
2018-Feb-23 13:00N 32°05' W 081°04'0 0.0
2018-Feb-23 12:30N 32°05' W 081°04'0 0.0
2018-Feb-23 12:00N 32°05' W 081°04'0 0.0
2018-Feb-23 11:28N 32°05' W 081°04'0 0.0
2018-Feb-23 11:00N 32°05' W 081°04'0 0.0
2018-Feb-23 10:30N 32°05' W 081°04'0 0.0
2018-Feb-23 10:00N 32°05' W 081°04'0 0.0
2018-Feb-23 09:30N 32°05' W 081°04'0 0.0
2018-Feb-23 09:00N 32°05' W 081°04'0 0.0
2018-Feb-23 08:30N 32°05' W 081°04'0 0.0
2018-Feb-23 08:00N 32°05' W 081°04'4 8.4
2018-Feb-23 07:29N 32°08' W 081°08'0 0.9
2018-Feb-23 07:00N 32°08' W 081°08'2 4.4
2018-Feb-23 06:30N 32°06' W 081°07'1 2.6
2018-Feb-23 06:00N 32°07' W 081°08'0 0.0
2018-Feb-23 05:30N 32°07' W 081°08'0 0.0
2018-Feb-23 04:58N 32°07' W 081°08'0 0.0
2018-Feb-23 04:30N 32°07' W 081°08'0 0.0
2018-Feb-23 04:00N 32°07' W 081°08'1 2.0
2018-Feb-23 03:30N 32°08' W 081°08'0 0.1
2018-Feb-23 03:00N 32°08' W 081°08'0 0.3
2018-Feb-23 02:30N 32°08' W 081°09'0 0.0
2018-Feb-23 02:00N 32°08' W 081°09'0 0.1
2018-Feb-23 01:30N 32°08' W 081°09'0 0.1
2018-Feb-23 01:00N 32°08' W 081°09'1 2.0
2018-Feb-23 00:30N 32°07' W 081°08'0 0.6
2018-Feb-23 00:00N 32°07' W 081°08'0 0.5
2018-Feb-22 23:30N 32°08' W 081°08'0 0.5
2018-Feb-22 23:00N 32°07' W 081°08'2 3.5
2018-Feb-22 22:30N 32°06' W 081°07'1 1.0
2018-Feb-22 22:00N 32°06' W 081°06'2 4.6
2018-Feb-22 21:30N 32°05' W 081°04'0 0.0
2018-Feb-22 21:00N 32°05' W 081°04'0 0.0
2018-Feb-22 20:30N 32°05' W 081°04'0 0.0
2018-Feb-22 20:00N 32°05' W 081°04'0 0.0
2018-Feb-22 19:30N 32°05' W 081°04'0 0.9
2018-Feb-22 19:00N 32°05' W 081°03'2 4.1
2018-Feb-22 18:30N 32°05' W 081°06'2 4.9
2018-Feb-22 18:00N 32°07' W 081°08'1 2.8
2018-Feb-22 17:30N 32°08' W 081°08'0 0.6
2018-Feb-22 17:00N 32°08' W 081°09'4 8.1
2018-Feb-22 16:30N 32°05' W 081°06'2 3.4
2018-Feb-22 16:00N 32°05' W 081°04'0 0.0
2018-Feb-22 15:30N 32°05' W 081°04'0 0.0
2018-Feb-22 15:00N 32°05' W 081°04'0 0.0
2018-Feb-22 14:30N 32°05' W 081°04'0 0.0
2018-Feb-22 14:00N 32°05' W 081°04'0 0.0
2018-Feb-22 13:30N 32°05' W 081°04'0 0.0
2018-Feb-22 13:00N 32°05' W 081°04'1 2.3
2018-Feb-22 12:30N 32°05' W 081°05'1 2.5
2018-Feb-22 12:00N 32°06' W 081°06'2 3.9
2018-Feb-22 11:30N 32°07' W 081°08'0 0.2
2018-Feb-22 11:00N 32°07' W 081°08'0 0.3
2018-Feb-22 10:30N 32°07' W 081°08'0 0.0
2018-Feb-22 10:00N 32°07' W 081°08'0 0.0
2018-Feb-22 09:30N 32°07' W 081°08'0 0.0
2018-Feb-22 09:00N 32°07' W 081°08'0 0.0
2018-Feb-22 08:30N 32°07' W 081°08'0 0.0
2018-Feb-22 08:00N 32°07' W 081°08'0 0.2
2018-Feb-22 07:30N 32°07' W 081°08'0 0.0
2018-Feb-22 06:59N 32°07' W 081°08'0 0.4
2018-Feb-22 06:30N 32°07' W 081°08'4 7.9
2018-Feb-22 06:00N 32°05' W 081°04'0 0.4
2018-Feb-22 05:30N 32°05' W 081°04'0 0.0
2018-Feb-22 04:59N 32°05' W 081°04'0 0.5
2018-Feb-22 04:30N 32°05' W 081°04'0 0.0
2018-Feb-22 04:00N 32°05' W 081°04'0 0.0
2018-Feb-22 03:30N 32°05' W 081°04'0 0.0
2018-Feb-22 03:00N 32°05' W 081°04'0 0.0
2018-Feb-22 02:30N 32°05' W 081°04'0 0.0
2018-Feb-22 02:00N 32°05' W 081°04'0 0.8
2018-Feb-22 01:30N 32°05' W 081°04'2 3.7
2018-Feb-22 01:00N 32°06' W 081°06'2 3.7
2018-Feb-22 00:30N 32°05' W 081°04'0 0.8
2018-Feb-22 00:00N 32°05' W 081°04'0 0.0
2018-Feb-21 23:30N 32°05' W 081°04'0 0.0
2018-Feb-21 22:59N 32°05' W 081°04'0 0.0
2018-Feb-21 22:30N 32°05' W 081°04'0 0.0
2018-Feb-21 22:00N 32°05' W 081°04'0 0.0
2018-Feb-21 21:30N 32°05' W 081°04'0 0.0
2018-Feb-21 21:00N 32°05' W 081°04'0 0.0
2018-Feb-21 20:30N 32°05' W 081°04'0 0.0
2018-Feb-21 20:00N 32°05' W 081°04'0 0.0
2018-Feb-21 19:30N 32°05' W 081°04'0 0.0
2018-Feb-21 19:01N 32°05' W 081°04'0 0.2
2018-Feb-21 18:29N 32°05' W 081°04'2 3.6
2018-Feb-21 18:01N 32°05' W 081°06'2 3.5
2018-Feb-21 17:30N 32°06' W 081°07'2 3.3
2018-Feb-21 16:58N 32°08' W 081°08'1 1.2
2018-Feb-21 16:31N 32°08' W 081°08'0 0.2
2018-Feb-21 16:01N 32°08' W 081°08'0 0.6
2018-Feb-21 15:30N 32°08' W 081°08'0 1.0
2018-Feb-21 15:01N 32°07' W 081°08'2 5.0
2018-Feb-21 14:31N 32°06' W 081°06'3 4.9
2018-Feb-21 14:00N 32°05' W 081°03'0 0.6
2018-Feb-21 13:30N 32°05' W 081°04'0 0.3
2018-Feb-21 13:00N 32°05' W 081°04'0 0.0
2018-Feb-21 12:31N 32°05' W 081°04'0 0.0
2018-Feb-21 12:01N 32°05' W 081°04'0 0.0
2018-Feb-21 11:30N 32°05' W 081°04'0 0.0
2018-Feb-21 11:00N 32°05' W 081°04'4 7.3
2018-Feb-21 10:31N 32°07' W 081°07'1 0.8
2018-Feb-21 09:48N 32°07' W 081°08'0 1.6
2018-Feb-21 09:30N 32°08' W 081°08'1 1.0
2018-Feb-21 09:00N 32°07' W 081°08'2 4.3
2018-Feb-21 08:29N 32°05' W 081°06'0 0.3
2018-Feb-21 08:00N 32°05' W 081°06'0 0.0
2018-Feb-21 07:31N 32°05' W 081°06'0 0.0
2018-Feb-21 07:01N 32°05' W 081°06'1 1.5
2018-Feb-21 06:31N 32°06' W 081°07'2 3.2
2018-Feb-21 06:01N 32°07' W 081°08'0 0.2
2018-Feb-21 05:30N 32°07' W 081°08'0 0.2
2018-Feb-21 05:01N 32°07' W 081°08'1 1.2
2018-Feb-21 04:30N 32°07' W 081°08'4 7.2
2018-Feb-21 04:01N 32°05' W 081°04'1 1.0
2018-Feb-21 03:28N 32°05' W 081°04'0 0.0
2018-Feb-21 02:59N 32°05' W 081°04'0 0.0
2018-Feb-21 02:30N 32°05' W 081°04'0 0.0
2018-Feb-21 01:58N 32°05' W 081°04'0 0.0
2018-Feb-21 01:30N 32°05' W 081°04'0 0.0
2018-Feb-21 01:00N 32°05' W 081°04'0 0.0
2018-Feb-21 00:30N 32°05' W 081°04'3 5.0
2018-Feb-21 00:00N 32°06' W 081°07'2 4.5
2018-Feb-20 23:30N 32°08' W 081°08'0 0.8
2018-Feb-20 23:00N 32°07' W 081°08'2 4.6
2018-Feb-20 22:31N 32°06' W 081°06'2 4.9
2018-Feb-20 22:00N 32°05' W 081°03'3 7.0
2018-Feb-20 21:30N 32°05' W 080°59'0 0.8
2018-Feb-20 21:00N 32°05' W 080°59'0 0.9
2018-Feb-20 20:30N 32°05' W 080°59'4 6.8
2018-Feb-20 19:57N 32°05' W 081°04'3 6.2
2018-Feb-20 19:30N 32°06' W 081°07'2 4.0
2018-Feb-20 19:00N 32°08' W 081°08'0 0.3
2018-Feb-20 18:29N 32°08' W 081°08'0 0.0
2018-Feb-20 18:00N 32°08' W 081°08'0 0.0
2018-Feb-20 17:30N 32°08' W 081°08'0 0.0
2018-Feb-20 17:00N 32°08' W 081°08'1 1.3
2018-Feb-20 16:30N 32°07' W 081°08'0 0.2
2018-Feb-20 16:00N 32°07' W 081°08'0 0.8
2018-Feb-20 15:29N 32°08' W 081°08'1 1.7
2018-Feb-20 15:00N 32°07' W 081°08'2 4.3
2018-Feb-20 14:30N 32°05' W 081°06'0 0.7
2018-Feb-20 14:01N 32°05' W 081°06'0 0.0
2018-Feb-20 13:30N 32°05' W 081°06'0 0.0
2018-Feb-20 13:00N 32°05' W 081°06'0 0.0
2018-Feb-20 12:30N 32°05' W 081°06'0 0.0
2018-Feb-20 11:55N 32°05' W 081°06'0 0.0
2018-Feb-20 11:30N 32°05' W 081°06'0 0.0
2018-Feb-20 11:01N 32°05' W 081°06'0 0.0
2018-Feb-20 10:30N 32°05' W 081°06'0 0.0
2018-Feb-20 10:00N 32°05' W 081°06'0 0.0
2018-Feb-20 09:30N 32°05' W 081°06'0 0.0
2018-Feb-20 08:59N 32°05' W 081°06'0 0.0
2018-Feb-20 08:30N 32°05' W 081°06'0 0.0
2018-Feb-20 08:00N 32°05' W 081°06'0 0.0
2018-Feb-20 07:30N 32°05' W 081°06'0 0.0
2018-Feb-20 07:00N 32°05' W 081°06'0 0.0
2018-Feb-20 06:31N 32°05' W 081°06'0 0.0
2018-Feb-20 05:57N 32°05' W 081°06'0 0.0
2018-Feb-20 05:30N 32°05' W 081°06'0 0.0
2018-Feb-20 05:01N 32°05' W 081°06'0 0.0
2018-Feb-20 04:29N 32°05' W 081°06'0 0.0
2018-Feb-20 04:00N 32°05' W 081°06'0 0.0
2018-Feb-20 03:30N 32°05' W 081°06'0 0.2
2018-Feb-20 02:59N 32°06' W 081°06'2 4.7
2018-Feb-20 02:30N 32°07' W 081°08'0 0.0
2018-Feb-20 02:00N 32°07' W 081°08'0 0.0
2018-Feb-20 01:31N 32°07' W 081°08'0 0.0
2018-Feb-20 01:00N 32°07' W 081°08'0 0.1
2018-Feb-20 00:30N 32°07' W 081°08'4 8.5
2018-Feb-20 00:00N 32°05' W 081°04'0 0.1
2018-Feb-19 23:30N 32°05' W 081°04'0 0.0
2018-Feb-19 23:00N 32°05' W 081°04'0 0.0
2018-Feb-19 22:30N 32°05' W 081°04'0 0.0
2018-Feb-19 22:00N 32°05' W 081°04'0 0.0
2018-Feb-19 21:30N 32°05' W 081°04'0 0.0
2018-Feb-19 21:00N 32°05' W 081°04'0 0.0
2018-Feb-19 20:30N 32°05' W 081°04'0 0.0
2018-Feb-19 20:00N 32°05' W 081°04'0 0.0
2018-Feb-19 19:29N 32°05' W 081°04'0 0.0
2018-Feb-19 19:00N 32°05' W 081°04'0 0.0
2018-Feb-19 18:30N 32°05' W 081°04'1 1.9
2018-Feb-19 17:59N 32°05' W 081°05'4 9.0
2018-Feb-19 17:30N 32°08' W 081°09'1 1.7
2018-Feb-19 16:59N 32°07' W 081°08'2 3.2
2018-Feb-19 16:30N 32°06' W 081°07'1 2.2
2018-Feb-19 16:00N 32°05' W 081°06'0 0.0
2018-Feb-19 15:30N 32°05' W 081°06'0 0.0
2018-Feb-19 15:00N 32°05' W 081°06'0 0.0
2018-Feb-19 14:30N 32°05' W 081°06'0 0.0
2018-Feb-19 14:00N 32°05' W 081°06'0 0.0
2018-Feb-19 13:30N 32°05' W 081°06'0 0.0
2018-Feb-19 13:00N 32°05' W 081°06'0 0.0
2018-Feb-19 12:30N 32°05' W 081°06'0 0.0
2018-Feb-19 12:00N 32°05' W 081°06'0 0.2
2018-Feb-19 11:29N 32°05' W 081°06'1 1.9
2018-Feb-19 11:00N 32°05' W 081°05'1 2.7
2018-Feb-19 10:30N 32°05' W 081°06'2 4.4
2018-Feb-19 10:00N 32°07' W 081°08'1 1.1
2018-Feb-19 09:28N 32°08' W 081°08'0 0.0
2018-Feb-19 09:00N 32°08' W 081°08'1 1.3
2018-Feb-19 08:30N 32°07' W 081°08'0 0.0
2018-Feb-19 08:00N 32°07' W 081°08'0 0.0
2018-Feb-19 07:30N 32°07' W 081°08'2 3.5
2018-Feb-19 07:00N 32°06' W 081°06'2 4.1
2018-Feb-19 06:30N 32°07' W 081°08'1 1.1
2018-Feb-19 06:00N 32°08' W 081°08'1 2.5
2018-Feb-19 05:30N 32°07' W 081°08'3 6.3
2018-Feb-19 04:59N 32°05' W 081°04'0 0.7
2018-Feb-19 04:30N 32°05' W 081°05'4 7.8
2018-Feb-19 04:00N 32°08' W 081°08'0 0.8
2018-Feb-19 03:30N 32°08' W 081°08'1 2.6
2018-Feb-19 03:00N 32°07' W 081°08'3 6.6
2018-Feb-19 02:30N 32°05' W 081°04'1 1.1
2018-Feb-19 02:00N 32°05' W 081°04'0 0.0
2018-Feb-19 01:30N 32°05' W 081°04'0 0.0
2018-Feb-19 01:00N 32°05' W 081°04'0 0.0
2018-Feb-19 00:30N 32°05' W 081°04'0 0.0
2018-Feb-19 00:00N 32°05' W 081°04'0 0.0
2018-Feb-18 23:30N 32°05' W 081°04'0 0.0
2018-Feb-18 23:00N 32°05' W 081°04'0 0.0
2018-Feb-18 22:30N 32°05' W 081°04'0 0.0
2018-Feb-18 22:00N 32°05' W 081°04'0 0.0
2018-Feb-18 21:30N 32°05' W 081°04'0 0.0
2018-Feb-18 21:00N 32°05' W 081°04'0 0.0
2018-Feb-18 20:30N 32°05' W 081°04'0 0.0
2018-Feb-18 20:00N 32°05' W 081°04'0 0.0
2018-Feb-18 19:30N 32°05' W 081°04'0 0.0
2018-Feb-18 18:58N 32°05' W 081°04'0 0.0
2018-Feb-18 18:30N 32°05' W 081°04'0 0.0
2018-Feb-18 18:00N 32°05' W 081°04'0 0.0
2018-Feb-18 17:29N 32°05' W 081°04'0 0.0
2018-Feb-18 17:00N 32°05' W 081°04'0 0.0
2018-Feb-18 16:28N 32°05' W 081°04'0 0.4
2018-Feb-18 16:00N 32°05' W 081°04'4 7.9
2018-Feb-18 15:30N 32°07' W 081°08'0 0.6
2018-Feb-18 15:00N 32°07' W 081°08'0 0.5
2018-Feb-18 14:30N 32°08' W 081°08'3 5.2
2018-Feb-18 14:00N 32°06' W 081°06'1 1.3
2018-Feb-18 13:30N 32°05' W 081°06'4 7.2
2018-Feb-18 13:00N 32°08' W 081°08'0 0.7
2018-Feb-18 12:30N 32°08' W 081°09'1 2.2
2018-Feb-18 12:00N 32°07' W 081°08'0 0.0
2018-Feb-18 11:30N 32°07' W 081°08'0 0.0
2018-Feb-18 11:00N 32°07' W 081°08'0 0.0
2018-Feb-18 10:30N 32°07' W 081°08'1 0.7
2018-Feb-18 09:37N 32°08' W 081°08'0 0.7
2018-Feb-18 09:30N 32°08' W 081°08'3 6.0
2018-Feb-18 09:00N 32°05' W 081°06'2 3.3
2018-Feb-18 08:30N 32°05' W 081°04'1 1.0
2018-Feb-18 08:00N 32°05' W 081°04'0 0.0
2018-Feb-18 07:30N 32°05' W 081°04'0 0.0
2018-Feb-18 07:00N 32°05' W 081°04'0 0.0
2018-Feb-18 06:30N 32°05' W 081°04'0 0.0
2018-Feb-18 06:00N 32°05' W 081°04'0 0.0
2018-Feb-18 05:30N 32°05' W 081°04'0 0.0
2018-Feb-18 05:00N 32°05' W 081°04'0 0.0
2018-Feb-18 04:30N 32°05' W 081°04'0 0.0
2018-Feb-18 04:00N 32°05' W 081°04'0 0.0
2018-Feb-18 03:30N 32°05' W 081°04'0 0.0
2018-Feb-18 03:00N 32°05' W 081°04'0 0.0
2018-Feb-18 02:30N 32°05' W 081°04'0 0.0
2018-Feb-18 02:00N 32°05' W 081°04'0 0.0
2018-Feb-18 01:30N 32°05' W 081°04'0 0.0
2018-Feb-18 00:59N 32°05' W 081°04'0 0.0
2018-Feb-18 00:30N 32°05' W 081°04'0 0.0
2018-Feb-18 00:00N 32°05' W 081°04'0 0.0
2018-Feb-17 23:30N 32°05' W 081°04'0 0.0
2018-Feb-17 23:00N 32°05' W 081°04'0 0.0
2018-Feb-17 22:30N 32°05' W 081°04'0 0.0
2018-Feb-17 22:00N 32°05' W 081°04'0 0.0
2018-Feb-17 21:30N 32°05' W 081°04'0 0.0
2018-Feb-17 21:00N 32°05' W 081°04'0 0.0
2018-Feb-17 20:29N 32°05' W 081°04'0 0.0
2018-Feb-17 20:00N 32°05' W 081°04'0 0.0
2018-Feb-17 19:30N 32°05' W 081°04'0 0.0
2018-Feb-17 19:00N 32°05' W 081°04'0 0.0
2018-Feb-17 18:30N 32°05' W 081°04'0 0.0
2018-Feb-17 18:00N 32°05' W 081°04'0 0.0
2018-Feb-17 17:30N 32°05' W 081°04'3 5.4
2018-Feb-17 17:00N 32°06' W 081°07'2 4.5
2018-Feb-17 16:30N 32°08' W 081°08'0 0.3
2018-Feb-17 16:00N 32°08' W 081°08'1 1.2
2018-Feb-17 15:30N 32°08' W 081°08'2 3.2
2018-Feb-17 15:00N 32°07' W 081°08'2 4.3
2018-Feb-17 14:29N 32°05' W 081°06'0 0.0
2018-Feb-17 14:00N 32°05' W 081°06'0 0.0
2018-Feb-17 13:30N 32°05' W 081°06'0 0.0
2018-Feb-17 12:59N 32°05' W 081°06'0 0.0
2018-Feb-17 12:30N 32°05' W 081°06'0 0.0
2018-Feb-17 12:00N 32°05' W 081°06'0 0.0
2018-Feb-17 11:30N 32°05' W 081°06'0 0.0
2018-Feb-17 10:57N 32°05' W 081°06'0 0.0
2018-Feb-17 10:30N 32°05' W 081°06'0 0.0
2018-Feb-17 10:00N 32°05' W 081°06'0 0.0
2018-Feb-17 09:30N 32°05' W 081°06'0 0.0
2018-Feb-17 09:00N 32°05' W 081°06'0 0.0
2018-Feb-17 08:30N 32°05' W 081°06'0 0.9
2018-Feb-17 08:00N 32°05' W 081°06'1 1.7
2018-Feb-17 07:30N 32°06' W 081°07'1 1.9
2018-Feb-17 07:00N 32°05' W 081°06'0 0.6
2018-Feb-17 06:30N 32°05' W 081°06'0 0.0
2018-Feb-17 06:00N 32°05' W 081°06'0 0.0
2018-Feb-17 05:30N 32°05' W 081°06'0 0.0
2018-Feb-17 05:00N 32°05' W 081°06'0 0.0
2018-Feb-17 04:30N 32°05' W 081°06'0 0.0
2018-Feb-17 04:00N 32°05' W 081°06'3 5.5
2018-Feb-17 03:30N 32°07' W 081°08'0 0.3
2018-Feb-17 02:59N 32°07' W 081°08'1 1.4
2018-Feb-17 02:30N 32°08' W 081°08'3 6.2
2018-Feb-17 02:00N 32°05' W 081°06'2 4.1
2018-Feb-17 01:30N 32°05' W 081°04'0 0.0
2018-Feb-17 01:00N 32°05' W 081°04'0 0.0
2018-Feb-17 00:30N 32°05' W 081°04'0 0.0
2018-Feb-17 00:00N 32°05' W 081°04'0 0.0
2018-Feb-16 23:30N 32°05' W 081°04'0 0.0
2018-Feb-16 23:00N 32°05' W 081°04'0 0.0
2018-Feb-16 22:30N 32°05' W 081°04'0 0.0
2018-Feb-16 22:00N 32°05' W 081°04'0 0.0
2018-Feb-16 21:30N 32°05' W 081°04'0 0.0
2018-Feb-16 21:00N 32°05' W 081°04'0 0.0
2018-Feb-16 20:30N 32°05' W 081°04'0 0.0
2018-Feb-16 20:00N 32°05' W 081°04'0 0.0
2018-Feb-16 19:30N 32°05' W 081°04'0 0.0
2018-Feb-16 19:00N 32°05' W 081°04'0 0.0
2018-Feb-16 18:30N 32°05' W 081°04'0 0.0
2018-Feb-16 18:00N 32°05' W 081°04'0 0.0
2018-Feb-16 17:30N 32°05' W 081°04'0 0.0
2018-Feb-16 17:00N 32°05' W 081°04'4 8.5
2018-Feb-16 16:30N 32°07' W 081°08'1 1.4
2018-Feb-16 16:00N 32°08' W 081°08'2 3.5
2018-Feb-16 15:30N 32°06' W 081°07'0 0.9
2018-Feb-16 15:00N 32°07' W 081°08'3 7.0
2018-Feb-16 14:30N 32°05' W 081°04'0 0.8
2018-Feb-16 14:00N 32°05' W 081°04'0 0.0
2018-Feb-16 13:30N 32°05' W 081°04'0 0.6
2018-Feb-16 12:59N 32°05' W 081°04'3 5.5
2018-Feb-16 12:30N 32°06' W 081°07'2 4.3
2018-Feb-16 12:00N 32°08' W 081°08'0 0.2
2018-Feb-16 11:30N 32°08' W 081°08'0 0.3
2018-Feb-16 10:59N 32°08' W 081°09'1 1.7
2018-Feb-16 10:30N 32°07' W 081°08'0 0.5
2018-Feb-16 10:00N 32°07' W 081°08'0 0.0
2018-Feb-16 09:30N 32°07' W 081°08'0 0.0
2018-Feb-16 09:00N 32°07' W 081°08'0 0.0
2018-Feb-16 08:30N 32°07' W 081°08'0 0.0
2018-Feb-16 08:00N 32°07' W 081°08'0 0.0
2018-Feb-16 07:30N 32°07' W 081°08'0 0.0
2018-Feb-16 07:00N 32°07' W 081°08'0 0.0
2018-Feb-16 06:30N 32°07' W 081°08'0 0.0
2018-Feb-16 06:00N 32°07' W 081°08'0 0.0
2018-Feb-16 05:30N 32°07' W 081°08'0 0.0
2018-Feb-16 05:00N 32°07' W 081°08'0 0.0
2018-Feb-16 04:30N 32°07' W 081°08'1 2.7
2018-Feb-16 04:00N 32°06' W 081°07'3 5.8
2018-Feb-16 03:30N 32°05' W 081°04'0 0.0
2018-Feb-16 03:00N 32°05' W 081°04'0 0.0
2018-Feb-16 02:30N 32°05' W 081°04'0 0.0
2018-Feb-16 02:00N 32°05' W 081°04'0 0.0
2018-Feb-16 01:30N 32°05' W 081°04'0 0.0
2018-Feb-16 01:00N 32°05' W 081°04'0 0.0
2018-Feb-16 00:30N 32°05' W 081°04'0 0.0
2018-Feb-16 00:00N 32°05' W 081°04'0 0.0
2018-Feb-15 23:30N 32°05' W 081°04'0 0.0
2018-Feb-15 23:00N 32°05' W 081°04'0 0.0
2018-Feb-15 22:30N 32°05' W 081°04'0 0.0
2018-Feb-15 21:59N 32°05' W 081°04'0 0.0
2018-Feb-15 21:30N 32°05' W 081°04'0 0.0
2018-Feb-15 21:00N 32°05' W 081°04'0 0.0
2018-Feb-15 20:29N 32°05' W 081°04'0 0.0
2018-Feb-15 20:00N 32°05' W 081°04'0 0.0
2018-Feb-15 19:30N 32°05' W 081°04'0 0.0
2018-Feb-15 19:00N 32°05' W 081°04'0 0.0
2018-Feb-15 18:30N 32°05' W 081°04'0 0.0
2018-Feb-15 18:00N 32°05' W 081°04'0 0.0
2018-Feb-15 17:29N 32°05' W 081°04'0 0.0
2018-Feb-15 17:00N 32°05' W 081°04'4 7.2
2018-Feb-15 16:30N 32°07' W 081°07'1 1.8
2018-Feb-15 15:59N 32°08' W 081°08'0 0.8
2018-Feb-15 15:30N 32°08' W 081°08'3 5.6
2018-Feb-15 15:01N 32°06' W 081°06'2 4.0
2018-Feb-15 14:27N 32°07' W 081°08'0 0.0
2018-Feb-15 14:00N 32°07' W 081°08'0 0.0
2018-Feb-15 13:30N 32°07' W 081°08'0 0.0
2018-Feb-15 12:59N 32°07' W 081°08'0 0.0
2018-Feb-15 12:30N 32°07' W 081°08'0 0.0
2018-Feb-15 12:00N 32°07' W 081°08'0 0.1
2018-Feb-15 11:30N 32°07' W 081°08'0 0.4
2018-Feb-15 11:00N 32°07' W 081°08'3 6.3
2018-Feb-15 10:31N 32°05' W 081°05'2 4.1
2018-Feb-15 10:00N 32°06' W 081°07'1 2.3
2018-Feb-15 09:31N 32°05' W 081°06'0 0.0
2018-Feb-15 09:00N 32°05' W 081°06'0 0.0
2018-Feb-15 08:31N 32°05' W 081°06'0 0.0
2018-Feb-15 08:00N 32°05' W 081°06'0 0.0
2018-Feb-15 07:30N 32°05' W 081°06'0 0.0
2018-Feb-15 07:00N 32°05' W 081°06'0 0.0
2018-Feb-15 06:30N 32°05' W 081°06'0 0.0
2018-Feb-15 06:00N 32°05' W 081°06'2 3.1
2018-Feb-15 05:30N 32°07' W 081°07'1 2.8
2018-Feb-15 05:00N 32°06' W 081°06'2 3.3
2018-Feb-15 04:30N 32°05' W 081°05'1 1.5
2018-Feb-15 04:01N 32°05' W 081°04'0 0.0
2018-Feb-15 03:30N 32°05' W 081°04'0 0.0
2018-Feb-15 03:01N 32°05' W 081°04'0 0.0
2018-Feb-15 02:31N 32°05' W 081°04'0 0.0
2018-Feb-15 02:00N 32°05' W 081°04'  

Dump ship's entire track history